createdAt,value
2023-01-19T00:01:13.297Z,13.80
2023-01-19T00:04:16.929Z,15.93
2023-01-19T00:07:23.469Z,14.27
2023-01-19T00:10:28.328Z,13.03
2023-01-19T00:13:31.041Z,14.23
2023-01-19T00:16:33.749Z,12.60
2023-01-19T00:19:38.708Z,10.93
2023-01-19T00:22:42.730Z,11.77
2023-01-19T00:25:45.432Z,13.40
2023-01-19T00:28:52.040Z,15.27
2023-01-19T00:31:54.793Z,15.27
2023-01-19T00:35:01.948Z,15.37
2023-01-19T00:38:06.716Z,12.90
2023-01-19T00:41:13.974Z,11.37
2023-01-19T00:44:16.741Z,11.33
2023-01-19T00:47:22.629Z,11.70
2023-01-19T00:50:26.493Z,10.30
2023-01-19T00:53:42.576Z,9.53
2023-01-19T00:56:49.716Z,11.13
2023-01-19T00:59:53.534Z,8.43
2023-01-19T01:03:05.162Z,9.43
2023-01-19T01:06:11.793Z,9.23
2023-01-19T01:09:18.753Z,10.17
2023-01-19T01:12:21.397Z,8.20
2023-01-19T01:15:26.751Z,8.30
2023-01-19T01:18:29.947Z,10.43
2023-01-19T01:21:34.536Z,9.27
2023-01-19T01:24:41.783Z,10.63
2023-01-19T01:27:45.754Z,10.03
2023-01-19T01:30:52.904Z,9.70
2023-01-19T01:33:58.716Z,8.17
2023-01-19T01:37:02.006Z,9.23
2023-01-19T01:40:12.670Z,12.03
2023-01-19T01:43:19.337Z,10.40
2023-01-19T01:46:26.509Z,11.63
2023-01-19T01:49:38.950Z,11.50
2023-01-19T01:53:06.832Z,11.93
2023-01-19T01:56:16.242Z,11.70
2023-01-19T01:59:26.678Z,12.63
2023-01-19T02:02:56.928Z,13.83
2023-01-19T02:06:02.973Z,11.97
2023-01-19T02:09:29.746Z,12.93
2023-01-19T02:12:55.797Z,9.97
2023-01-19T02:16:03.014Z,11.47
2023-01-19T02:19:09.692Z,8.80
2023-01-19T02:22:19.477Z,8.93
2023-01-19T02:25:25.227Z,10.07
2023-01-19T02:28:31.576Z,9.97
2023-01-19T02:31:37.221Z,8.03
2023-01-19T02:34:46.027Z,6.13
2023-01-19T02:37:51.616Z,8.97
2023-01-19T02:40:57.923Z,11.37
2023-01-19T02:44:02.111Z,9.50
2023-01-19T02:47:05.591Z,6.90
2023-01-19T02:50:37.967Z,9.13
2023-01-19T02:53:59.791Z,10.27
2023-01-19T02:57:36.105Z,12.63
2023-01-19T03:00:51.025Z,10.93
2023-01-19T03:04:01.019Z,11.43
2023-01-19T03:07:12.615Z,12.00
2023-01-19T03:10:21.512Z,11.83
2023-01-19T03:13:33.971Z,11.60
2023-01-19T03:16:42.119Z,10.27
2023-01-19T03:19:48.083Z,11.57
2023-01-19T03:22:55.111Z,12.00
2023-01-19T03:26:00.364Z,11.87
2023-01-19T03:29:06.885Z,9.63
2023-01-19T03:32:17.298Z,10.07
2023-01-19T03:35:22.879Z,10.70
2023-01-19T03:38:36.901Z,10.87
2023-01-19T03:41:42.420Z,10.07
2023-01-19T03:44:50.495Z,10.10
2023-01-19T03:47:53.529Z,8.23
2023-01-19T03:50:56.735Z,9.93
2023-01-19T03:54:01.989Z,8.43
2023-01-19T03:57:07.778Z,9.10
2023-01-19T04:00:13.682Z,9.67
2023-01-19T04:03:17.604Z,7.13
2023-01-19T04:06:22.076Z,11.33
2023-01-19T04:09:30.995Z,8.63
2023-01-19T04:12:35.458Z,9.57
2023-01-19T04:15:39.811Z,9.20
2023-01-19T04:18:44.494Z,6.57
2023-01-19T04:21:50.741Z,8.47
2023-01-19T04:24:53.439Z,7.53
2023-01-19T04:27:57.975Z,9.53
2023-01-19T04:31:02.360Z,7.40
2023-01-19T04:34:05.081Z,8.47
2023-01-19T04:37:08.504Z,9.93
2023-01-19T04:40:12.395Z,8.37
2023-01-19T04:43:15.526Z,4.87
2023-01-19T04:46:19.548Z,9.53
2023-01-19T04:49:24.624Z,6.80
2023-01-19T04:52:34.858Z,5.50
2023-01-19T04:55:40.516Z,6.83
2023-01-19T04:58:43.203Z,7.10
2023-01-19T05:01:47.247Z,8.87
2023-01-19T05:04:49.970Z,8.57
2023-01-19T05:07:52.579Z,7.33
2023-01-19T05:10:58.403Z,4.17
2023-01-19T05:14:01.050Z,5.30
2023-01-19T05:17:05.102Z,4.77
2023-01-19T05:20:11.164Z,7.63
2023-01-19T05:23:19.976Z,5.80
2023-01-19T05:26:22.771Z,6.60
2023-01-19T05:29:28.471Z,7.97
2023-01-19T05:32:32.572Z,8.93
2023-01-19T05:35:37.411Z,9.77
2023-01-19T05:38:44.148Z,10.27
2023-01-19T05:41:49.965Z,8.63
2023-01-19T05:44:52.872Z,9.67
2023-01-19T05:47:59.898Z,9.90
2023-01-19T05:51:10.382Z,9.20
2023-01-19T05:54:15.091Z,10.77
2023-01-19T05:57:18.006Z,5.23
2023-01-19T06:00:24.523Z,9.53
2023-01-19T06:03:29.903Z,9.70
2023-01-19T06:06:41.820Z,8.63
2023-01-19T06:09:44.435Z,9.17
2023-01-19T06:12:50.342Z,8.57
2023-01-19T06:15:59.916Z,10.03
2023-01-19T06:19:11.611Z,7.93
2023-01-19T06:22:14.304Z,9.00
2023-01-19T06:25:16.999Z,3.60
2023-01-19T06:28:19.687Z,7.00
2023-01-19T06:31:22.613Z,8.60
2023-01-19T06:34:28.751Z,9.10
2023-01-19T06:37:35.086Z,6.17
2023-01-19T06:40:38.591Z,8.23
2023-01-19T06:43:41.259Z,8.40
2023-01-19T06:46:50.200Z,9.27
2023-01-19T06:49:54.224Z,6.17
2023-01-19T06:52:56.990Z,6.87
2023-01-19T06:56:00.984Z,7.67
2023-01-19T06:59:04.143Z,5.23
2023-01-19T07:02:26.510Z,5.80
2023-01-19T07:05:32.065Z,6.70
2023-01-19T07:08:38.553Z,6.93
2023-01-19T07:11:41.914Z,8.73
2023-01-19T07:14:44.858Z,6.50
2023-01-19T07:17:47.929Z,10.10
2023-01-19T07:20:51.983Z,9.30
2023-01-19T07:23:55.023Z,10.47
2023-01-19T07:26:57.751Z,13.73
2023-01-19T07:30:01.113Z,12.73
2023-01-19T07:33:06.040Z,15.03
2023-01-19T07:36:10.972Z,13.03
2023-01-19T07:39:13.898Z,13.83
2023-01-19T07:42:17.180Z,14.20
2023-01-19T07:45:21.641Z,28.90
2023-01-19T07:48:24.303Z,30.30
2023-01-19T07:51:28.331Z,29.40
2023-01-19T07:54:31.153Z,23.30
2023-01-19T07:57:33.998Z,21.80
2023-01-19T08:00:37.962Z,16.87
2023-01-19T08:03:41.220Z,17.27
2023-01-19T08:06:47.188Z,13.67
2023-01-19T08:09:49.892Z,14.53
2023-01-19T08:12:52.928Z,14.43
2023-01-19T08:15:55.801Z,13.07
2023-01-19T08:18:58.539Z,13.00
2023-01-19T08:22:05.080Z,10.23
2023-01-19T08:25:09.415Z,10.40
2023-01-19T08:28:14.401Z,18.07
2023-01-19T08:31:21.028Z,20.17
2023-01-19T08:34:25.731Z,20.70
2023-01-19T08:37:37.402Z,20.83
2023-01-19T08:40:41.970Z,17.83
2023-01-19T08:43:53.888Z,13.03
2023-01-19T08:46:56.610Z,12.30
2023-01-19T08:49:59.277Z,10.30
2023-01-19T08:53:06.558Z,9.00
2023-01-19T08:56:22.502Z,10.60
2023-01-19T08:59:25.144Z,11.07
2023-01-19T09:02:31.318Z,10.00
2023-01-19T09:05:37.261Z,9.17
2023-01-19T09:08:42.587Z,7.97
2023-01-19T09:11:45.299Z,7.63
2023-01-19T09:14:47.983Z,17.10
2023-01-19T09:17:52.841Z,12.03
2023-01-19T09:20:58.366Z,7.03
2023-01-19T09:24:06.061Z,7.47
2023-01-19T09:27:09.174Z,7.40
2023-01-19T09:30:13.092Z,8.20
2023-01-19T09:33:18.582Z,8.10
2023-01-19T09:36:21.224Z,8.20
2023-01-19T09:39:26.417Z,8.80
2023-01-19T09:42:38.171Z,7.63
2023-01-19T09:45:46.972Z,6.73
2023-01-19T09:48:52.863Z,6.77
2023-01-19T09:51:55.635Z,7.63
2023-01-19T09:54:59.932Z,6.80
2023-01-19T09:58:05.699Z,7.17
2023-01-19T10:01:21.249Z,7.70
2023-01-19T10:04:37.809Z,8.00
2023-01-19T10:07:54.238Z,6.73
2023-01-19T10:10:59.630Z,5.63
2023-01-19T10:14:04.642Z,7.00
2023-01-19T10:17:21.369Z,6.13
2023-01-19T10:20:34.414Z,5.93
2023-01-19T10:23:42.187Z,5.70
2023-01-19T10:26:50.070Z,7.47
2023-01-19T10:29:52.849Z,11.33
2023-01-19T10:33:02.055Z,14.07
2023-01-19T10:36:16.191Z,7.63
2023-01-19T10:39:22.265Z,9.93
2023-01-19T10:42:29.969Z,7.73
2023-01-19T10:45:34.882Z,8.40
2023-01-19T10:48:42.892Z,7.67
2023-01-19T10:51:49.023Z,9.50
2023-01-19T10:54:51.952Z,13.63
2023-01-19T10:57:57.275Z,6.97
2023-01-19T11:01:14.353Z,7.60
2023-01-19T11:04:22.435Z,4.60
2023-01-19T11:07:29.973Z,7.37
2023-01-19T11:10:33.401Z,6.87
2023-01-19T11:13:40.833Z,6.07
2023-01-19T11:16:49.376Z,5.50
2023-01-19T11:20:02.052Z,5.40
2023-01-19T11:23:06.525Z,4.57
2023-01-19T11:26:10.679Z,5.33
2023-01-19T11:29:20.947Z,4.43
2023-01-19T11:32:25.098Z,4.03
2023-01-19T11:35:37.311Z,4.00
2023-01-19T11:38:44.236Z,4.50
2023-01-19T11:41:51.805Z,5.37
2023-01-19T11:45:05.205Z,4.07
2023-01-19T11:48:16.772Z,4.37
2023-01-19T11:51:22.593Z,3.70
2023-01-19T11:54:32.499Z,3.50
2023-01-19T11:57:39.962Z,4.43
2023-01-19T12:00:47.327Z,3.60
2023-01-19T12:03:57.957Z,3.40
2023-01-19T12:07:07.469Z,3.90
2023-01-19T12:10:26.073Z,5.77
2023-01-19T12:13:30.559Z,5.17
2023-01-19T12:16:38.761Z,3.70
2023-01-19T12:19:47.317Z,3.40
2023-01-19T12:22:59.796Z,3.37
2023-01-19T12:26:37.366Z,3.70
2023-01-19T12:29:41.393Z,3.70
2023-01-19T12:32:48.756Z,3.97
2023-01-19T12:35:56.020Z,3.63
2023-01-19T12:39:03.746Z,4.03
2023-01-19T12:42:13.666Z,4.03
2023-01-19T12:45:19.574Z,4.10
2023-01-19T12:48:28.433Z,11.07
2023-01-19T12:51:31.271Z,4.77
2023-01-19T12:54:36.453Z,8.77
2023-01-19T12:57:42.179Z,4.60
2023-01-19T13:00:46.155Z,5.20
2023-01-19T13:04:09.361Z,6.47
2023-01-19T13:07:17.835Z,23.73
2023-01-19T13:10:57.341Z,10.00
2023-01-19T13:14:35.830Z,4.87
2023-01-19T13:17:49.919Z,5.00
2023-01-19T13:20:58.096Z,6.40
2023-01-19T13:24:03.121Z,7.70
2023-01-19T13:27:06.109Z,7.83
2023-01-19T13:30:13.340Z,4.83
2023-01-19T13:33:21.025Z,16.17
2023-01-19T13:36:30.768Z,16.73
2023-01-19T13:39:37.671Z,28.80
2023-01-19T13:42:42.785Z,18.50
2023-01-19T13:45:51.715Z,10.60
2023-01-19T13:48:58.695Z,8.30
2023-01-19T13:52:14.429Z,4.90
2023-01-19T13:55:18.761Z,9.73
2023-01-19T13:58:23.432Z,6.70
2023-01-19T14:01:29.350Z,6.40
2023-01-19T14:04:36.238Z,5.50
2023-01-19T14:07:40.364Z,6.70
2023-01-19T14:10:45.916Z,6.47
2023-01-19T14:13:48.640Z,4.47
2023-01-19T14:16:51.426Z,4.50
2023-01-19T14:19:55.555Z,5.87
2023-01-19T14:23:02.088Z,4.87
2023-01-19T14:26:05.059Z,4.70
2023-01-19T14:29:26.037Z,4.43
2023-01-19T14:32:29.758Z,9.40
2023-01-19T14:35:34.624Z,10.20
2023-01-19T14:38:39.479Z,6.83
2023-01-19T14:41:52.356Z,8.13
2023-01-19T14:44:57.357Z,15.33
2023-01-19T14:48:03.414Z,6.00
2023-01-19T14:51:06.732Z,8.67
2023-01-19T14:54:18.756Z,5.17
2023-01-19T14:57:24.918Z,4.90
2023-01-19T15:00:27.945Z,5.30
2023-01-19T15:03:44.671Z,7.20
2023-01-19T15:06:48.443Z,5.00
2023-01-19T15:09:52.942Z,4.43
2023-01-19T15:12:56.241Z,5.30
2023-01-19T15:15:59.224Z,5.40
2023-01-19T15:19:02.061Z,4.93
2023-01-19T15:22:11.954Z,4.80
2023-01-19T15:25:18.393Z,5.20
2023-01-19T15:28:21.411Z,4.97
2023-01-19T15:31:26.507Z,4.87
2023-01-19T15:34:32.306Z,4.80
2023-01-19T15:37:36.364Z,4.80
2023-01-19T15:40:40.442Z,5.03
2023-01-19T15:43:43.302Z,5.37
2023-01-19T15:46:45.913Z,5.63
2023-01-19T15:49:48.614Z,5.40
2023-01-19T15:52:51.399Z,5.57
2023-01-19T15:55:56.888Z,5.30
2023-01-19T15:58:59.893Z,6.30
2023-01-19T16:02:03.748Z,6.10
2023-01-19T16:05:18.008Z,7.10
2023-01-19T16:08:22.060Z,7.20
2023-01-19T16:11:26.998Z,8.83
2023-01-19T16:14:29.841Z,9.87
2023-01-19T16:17:34.735Z,8.77
2023-01-19T16:20:37.566Z,7.83
2023-01-19T16:23:40.327Z,9.50
2023-01-19T16:26:44.327Z,8.97
2023-01-19T16:29:48.830Z,13.33
2023-01-19T16:32:51.561Z,11.97
2023-01-19T16:35:54.379Z,13.07
2023-01-19T16:39:01.831Z,12.50
2023-01-19T16:42:06.092Z,13.73
2023-01-19T16:45:09.429Z,14.23
2023-01-19T16:48:12.125Z,12.70
2023-01-19T16:51:14.858Z,11.63
2023-01-19T16:54:20.858Z,10.10
2023-01-19T16:57:25.046Z,9.73
2023-01-19T17:00:27.728Z,10.13
2023-01-19T17:03:32.710Z,8.60
2023-01-19T17:06:35.408Z,7.57
2023-01-19T17:09:38.319Z,6.37
2023-01-19T17:12:46.352Z,13.87
2023-01-19T17:15:49.110Z,9.27
2023-01-19T17:18:52.042Z,7.50
2023-01-19T17:21:54.739Z,7.57
2023-01-19T17:24:57.368Z,7.70
2023-01-19T17:28:02.029Z,10.20
2023-01-19T17:31:06.438Z,10.67
2023-01-19T17:34:09.814Z,12.13
2023-01-19T17:37:12.447Z,12.73
2023-01-19T17:40:15.310Z,15.33
2023-01-19T17:43:19.316Z,17.27
2023-01-19T17:46:23.989Z,16.13
2023-01-19T17:49:26.702Z,15.60
2023-01-19T17:52:29.342Z,16.00
2023-01-19T17:55:33.954Z,16.57
2023-01-19T17:58:38.485Z,19.27
2023-01-19T18:01:42.886Z,21.43
2023-01-19T18:04:46.155Z,15.90
2023-01-19T18:07:49.006Z,16.17
2023-01-19T18:10:55.355Z,17.23
2023-01-19T18:14:00.169Z,15.23
2023-01-19T18:17:03.780Z,16.77
2023-01-19T18:20:07.711Z,16.83
2023-01-19T18:23:10.385Z,15.80
2023-01-19T18:26:15.639Z,16.03
2023-01-19T18:29:20.546Z,14.73
2023-01-19T18:32:29.295Z,17.50
2023-01-19T18:35:32.042Z,8.70
2023-01-19T18:38:35.374Z,9.30
2023-01-19T18:41:41.748Z,8.63
2023-01-19T18:44:45.770Z,9.23
2023-01-19T18:47:48.483Z,12.40
2023-01-19T18:50:51.385Z,11.93
2023-01-19T18:53:54.199Z,11.03
2023-01-19T18:56:56.992Z,11.33
2023-01-19T19:00:01.093Z,8.60
2023-01-19T19:03:03.789Z,8.67
2023-01-19T19:06:06.839Z,10.57
2023-01-19T19:09:10.318Z,12.33
2023-01-19T19:12:13.225Z,23.47
2023-01-19T19:15:17.697Z,27.67
2023-01-19T19:18:20.586Z,24.90
2023-01-19T19:21:25.389Z,24.07
2023-01-19T19:24:28.155Z,25.37
2023-01-19T19:27:30.823Z,22.73
2023-01-19T19:30:37.701Z,24.23
2023-01-19T19:33:41.605Z,23.80
2023-01-19T19:36:44.299Z,27.37
2023-01-19T19:39:48.594Z,28.57
2023-01-19T19:42:51.440Z,25.67
2023-01-19T19:45:59.879Z,20.40
2023-01-19T19:49:03.048Z,23.13
2023-01-19T19:52:06.064Z,25.80
2023-01-19T19:55:10.587Z,25.87
2023-01-19T19:58:13.277Z,23.67
2023-01-19T20:01:19.278Z,25.27
2023-01-19T20:04:23.792Z,23.23
2023-01-19T20:07:26.598Z,15.50
2023-01-19T20:10:30.025Z,13.73
2023-01-19T20:13:33.072Z,16.77
2023-01-19T20:16:37.623Z,14.00
2023-01-19T20:19:40.525Z,12.83
2023-01-19T20:22:43.314Z,12.73
2023-01-19T20:25:46.394Z,12.97
2023-01-19T20:28:49.385Z,13.90
2023-01-19T20:31:55.542Z,13.30
2023-01-19T20:34:58.184Z,13.83
2023-01-19T20:38:00.915Z,14.23
2023-01-19T20:41:03.686Z,15.20
2023-01-19T20:44:06.317Z,16.23
2023-01-19T20:47:10.400Z,16.80
2023-01-19T20:50:13.623Z,17.23
2023-01-19T20:53:16.961Z,19.93
2023-01-19T20:56:19.604Z,17.77
2023-01-19T20:59:23.011Z,18.90
2023-01-19T21:02:28.584Z,18.47
2023-01-19T21:05:31.309Z,16.37
2023-01-19T21:08:34.213Z,18.00
2023-01-19T21:11:37.802Z,17.57
2023-01-19T21:14:42.354Z,18.63
2023-01-19T21:17:46.407Z,18.77
2023-01-19T21:20:49.222Z,19.27
2023-01-19T21:23:52.305Z,17.70
2023-01-19T21:26:54.953Z,23.20
2023-01-19T21:29:58.629Z,28.70
2023-01-19T21:33:05.101Z,25.40
2023-01-19T21:36:09.757Z,19.63
2023-01-19T21:39:12.529Z,19.27
2023-01-19T21:42:15.251Z,20.07
2023-01-19T21:45:17.954Z,17.37
2023-01-19T21:48:22.051Z,15.67
2023-01-19T21:51:24.829Z,15.47
2023-01-19T21:54:27.675Z,15.77
2023-01-19T21:57:30.315Z,19.80
2023-01-19T22:00:33.000Z,18.10
2023-01-19T22:03:37.217Z,17.60
2023-01-19T22:06:40.139Z,17.73
2023-01-19T22:09:42.840Z,17.37
2023-01-19T22:12:46.014Z,18.10
2023-01-19T22:15:48.635Z,18.30
2023-01-19T22:18:56.432Z,17.93
2023-01-19T22:21:59.074Z,20.17
2023-01-19T22:25:02.426Z,24.20
2023-01-19T22:28:05.107Z,14.70
2023-01-19T22:31:09.869Z,14.10
2023-01-19T22:34:15.789Z,14.33
2023-01-19T22:37:19.013Z,14.03
2023-01-19T22:40:21.996Z,15.13
2023-01-19T22:43:24.713Z,15.87
2023-01-19T22:46:29.448Z,14.37
2023-01-19T22:49:33.508Z,13.50
2023-01-19T22:52:36.185Z,15.37
2023-01-19T22:55:38.911Z,14.77
2023-01-19T22:58:44.087Z,14.17
2023-01-19T23:01:47.229Z,17.23
2023-01-19T23:04:51.402Z,17.37
2023-01-19T23:07:54.046Z,21.70
2023-01-19T23:10:56.687Z,23.60
2023-01-19T23:14:00.097Z,21.13
2023-01-19T23:17:03.673Z,17.43
2023-01-19T23:20:09.514Z,14.30
2023-01-19T23:23:12.244Z,16.30
2023-01-19T23:26:16.938Z,15.07
2023-01-19T23:29:19.792Z,14.37
2023-01-19T23:32:22.477Z,14.97
2023-01-19T23:35:26.503Z,15.23
2023-01-19T23:38:29.195Z,14.23
2023-01-19T23:41:34.449Z,14.73
2023-01-19T23:44:41.553Z,14.67
2023-01-19T23:47:51.405Z,15.07
2023-01-19T23:50:55.415Z,14.37
2023-01-19T23:54:03.383Z,13.80
2023-01-19T23:57:06.089Z,13.57
